sensor_id;sensor_type;location;lat;lon;timestamp;temperature;humidity
6379;DHT22;3222;48.858;10.128;2023-05-07T00:01:27;15.20;99.90
6379;DHT22;3222;48.858;10.128;2023-05-07T00:03:52;15.10;99.90
6379;DHT22;3222;48.858;10.128;2023-05-07T00:06:18;15.10;99.90
6379;DHT22;3222;48.858;10.128;2023-05-07T00:08:44;15.10;99.90
6379;DHT22;3222;48.858;10.128;2023-05-07T00:11:10;15.20;99.90
6379;DHT22;3222;48.858;10.128;2023-05-07T00:13:36;15.20;99.90
6379;DHT22;3222;48.858;10.128;2023-05-07T00:16:02;15.20;99.90
6379;DHT22;3222;48.858;10.128;2023-05-07T00:18:28;15.20;99.90
6379;DHT22;3222;48.858;10.128;2023-05-07T00:20:54;15.20;99.90
6379;DHT22;3222;48.858;10.128;2023-05-07T00:23:19;15.20;99.90
6379;DHT22;3222;48.858;10.128;2023-05-07T00:25:45;15.20;99.90
6379;DHT22;3222;48.858;10.128;2023-05-07T00:28:11;15.10;99.90
6379;DHT22;3222;48.858;10.128;2023-05-07T00:30:36;15.10;99.90
6379;DHT22;3222;48.858;10.128;2023-05-07T00:33:02;15.10;99.90
6379;DHT22;3222;48.858;10.128;2023-05-07T00:35:28;15.10;99.90
6379;DHT22;3222;48.858;10.128;2023-05-07T00:37:55;15.10;99.90
6379;DHT22;3222;48.858;10.128;2023-05-07T00:40:21;15.10;99.90
6379;DHT22;3222;48.858;10.128;2023-05-07T00:42:46;15.10;99.90
6379;DHT22;3222;48.858;10.128;2023-05-07T00:45:15;15.00;99.90
6379;DHT22;3222;48.858;10.128;2023-05-07T00:47:41;14.90;99.90
6379;DHT22;3222;48.858;10.128;2023-05-07T00:50:08;14.90;99.90
6379;DHT22;3222;48.858;10.128;2023-05-07T00:52:35;14.90;99.90
6379;DHT22;3222;48.858;10.128;2023-05-07T00:55:05;14.90;99.90
6379;DHT22;3222;48.858;10.128;2023-05-07T00:57:35;14.80;99.90
6379;DHT22;3222;48.858;10.128;2023-05-07T01:00:03;14.80;99.90
6379;DHT22;3222;48.858;10.128;2023-05-07T01:02:29;15.00;99.90
6379;DHT22;3222;48.858;10.128;2023-05-07T01:04:55;15.10;99.90
6379;DHT22;3222;48.858;10.128;2023-05-07T01:07:22;15.10;99.90
6379;DHT22;3222;48.858;10.128;2023-05-07T01:09:48;15.10;99.90
6379;DHT22;3222;48.858;10.128;2023-05-07T01:12:15;15.10;99.90
6379;DHT22;3222;48.858;10.128;2023-05-07T01:14:41;15.10;99.90
6379;DHT22;3222;48.858;10.128;2023-05-07T01:17:07;15.10;99.90
6379;DHT22;3222;48.858;10.128;2023-05-07T01:19:34;15.10;99.90
6379;DHT22;3222;48.858;10.128;2023-05-07T01:22:07;15.00;99.90
6379;DHT22;3222;48.858;10.128;2023-05-07T01:24:41;15.00;99.90
6379;DHT22;3222;48.858;10.128;2023-05-07T01:27:08;15.00;99.90
6379;DHT22;3222;48.858;10.128;2023-05-07T01:29:34;15.00;99.90
6379;DHT22;3222;48.858;10.128;2023-05-07T01:32:01;15.10;99.90
6379;DHT22;3222;48.858;10.128;2023-05-07T01:34:31;15.00;99.90
6379;DHT22;3222;48.858;10.128;2023-05-07T01:36:58;15.00;99.90
6379;DHT22;3222;48.858;10.128;2023-05-07T01:39:26;15.00;99.90
6379;DHT22;3222;48.858;10.128;2023-05-07T01:41:56;14.90;99.90
6379;DHT22;3222;48.858;10.128;2023-05-07T01:44:24;14.80;99.90
6379;DHT22;3222;48.858;10.128;2023-05-07T01:46:50;14.80;99.90
6379;DHT22;3222;48.858;10.128;2023-05-07T01:49:17;14.90;99.90
6379;DHT22;3222;48.858;10.128;2023-05-07T01:51:43;14.90;99.90
6379;DHT22;3222;48.858;10.128;2023-05-07T01:54:09;14.90;99.90
6379;DHT22;3222;48.858;10.128;2023-05-07T01:56:35;15.00;99.90
6379;DHT22;3222;48.858;10.128;2023-05-07T01:59:02;15.00;99.90
6379;DHT22;3222;48.858;10.128;2023-05-07T02:01:28;15.00;99.90
6379;DHT22;3222;48.858;10.128;2023-05-07T02:03:54;14.90;99.90
6379;DHT22;3222;48.858;10.128;2023-05-07T02:06:23;15.00;99.90
6379;DHT22;3222;48.858;10.128;2023-05-07T02:08:53;14.90;99.90
6379;DHT22;3222;48.858;10.128;2023-05-07T02:11:19;15.00;99.90
6379;DHT22;3222;48.858;10.128;2023-05-07T02:13:45;14.90;99.90
6379;DHT22;3222;48.858;10.128;2023-05-07T02:16:11;14.90;99.90
6379;DHT22;3222;48.858;10.128;2023-05-07T02:18:38;14.90;99.90
6379;DHT22;3222;48.858;10.128;2023-05-07T02:21:03;14.90;99.90
6379;DHT22;3222;48.858;10.128;2023-05-07T02:23:29;14.80;99.90
6379;DHT22;3222;48.858;10.128;2023-05-07T02:25:55;14.80;99.90
6379;DHT22;3222;48.858;10.128;2023-05-07T02:28:21;14.80;99.90
6379;DHT22;3222;48.858;10.128;2023-05-07T02:30:53;14.80;99.90
6379;DHT22;3222;48.858;10.128;2023-05-07T02:33:19;14.80;99.90
6379;DHT22;3222;48.858;10.128;2023-05-07T02:35:46;14.80;99.90
6379;DHT22;3222;48.858;10.128;2023-05-07T02:38:13;14.80;99.90
6379;DHT22;3222;48.858;10.128;2023-05-07T02:40:40;14.80;99.90
6379;DHT22;3222;48.858;10.128;2023-05-07T02:43:06;14.80;99.90
6379;DHT22;3222;48.858;10.128;2023-05-07T02:45:32;14.80;99.90
6379;DHT22;3222;48.858;10.128;2023-05-07T02:47:59;14.80;99.90
6379;DHT22;3222;48.858;10.128;2023-05-07T02:50:25;14.80;99.90
6379;DHT22;3222;48.858;10.128;2023-05-07T02:52:52;14.80;99.90
6379;DHT22;3222;48.858;10.128;2023-05-07T02:55:17;14.70;99.90
6379;DHT22;3222;48.858;10.128;2023-05-07T02:57:44;14.70;99.90
6379;DHT22;3222;48.858;10.128;2023-05-07T03:00:14;14.70;99.90
6379;DHT22;3222;48.858;10.128;2023-05-07T03:02:45;14.70;99.90
6379;DHT22;3222;48.858;10.128;2023-05-07T03:05:11;14.70;99.90
6379;DHT22;3222;48.858;10.128;2023-05-07T03:07:37;14.70;99.90
6379;DHT22;3222;48.858;10.128;2023-05-07T03:10:03;14.70;99.90
6379;DHT22;3222;48.858;10.128;2023-05-07T03:12:29;14.70;99.90
6379;DHT22;3222;48.858;10.128;2023-05-07T03:14:55;14.70;99.90
6379;DHT22;3222;48.858;10.128;2023-05-07T03:17:21;14.60;99.90
6379;DHT22;3222;48.858;10.128;2023-05-07T03:19:47;14.70;99.90
6379;DHT22;3222;48.858;10.128;2023-05-07T03:22:13;14.60;99.90
6379;DHT22;3222;48.858;10.128;2023-05-07T03:24:39;14.60;99.90
6379;DHT22;3222;48.858;10.128;2023-05-07T03:27:04;14.60;99.90
6379;DHT22;3222;48.858;10.128;2023-05-07T03:29:30;14.60;99.90
6379;DHT22;3222;48.858;10.128;2023-05-07T03:31:56;14.60;99.90
6379;DHT22;3222;48.858;10.128;2023-05-07T03:34:22;14.60;99.90
6379;DHT22;3222;48.858;10.128;2023-05-07T03:36:51;14.60;99.90
6379;DHT22;3222;48.858;10.128;2023-05-07T03:39:18;14.60;99.90
6379;DHT22;3222;48.858;10.128;2023-05-07T03:41:44;14.60;99.90
6379;DHT22;3222;48.858;10.128;2023-05-07T03:44:10;14.60;99.90
6379;DHT22;3222;48.858;10.128;2023-05-07T03:46:36;14.60;99.90
6379;DHT22;3222;48.858;10.128;2023-05-07T03:49:02;14.60;99.90
6379;DHT22;3222;48.858;10.128;2023-05-07T03:51:30;14.50;99.90
6379;DHT22;3222;48.858;10.128;2023-05-07T03:53:56;14.50;99.90
6379;DHT22;3222;48.858;10.128;2023-05-07T03:56:23;14.50;99.90
6379;DHT22;3222;48.858;10.128;2023-05-07T03:58:54;14.50;99.90
6379;DHT22;3222;48.858;10.128;2023-05-07T04:01:20;14.50;99.90
6379;DHT22;3222;48.858;10.128;2023-05-07T04:03:46;14.50;99.90
6379;DHT22;3222;48.858;10.128;2023-05-07T04:06:12;14.50;99.90
6379;DHT22;3222;48.858;10.128;2023-05-07T04:08:40;14.50;99.90
6379;DHT22;3222;48.858;10.128;2023-05-07T04:11:07;14.50;99.90
6379;DHT22;3222;48.858;10.128;2023-05-07T04:13:34;14.50;99.90
6379;DHT22;3222;48.858;10.128;2023-05-07T04:16:03;14.50;99.90
6379;DHT22;3222;48.858;10.128;2023-05-07T04:18:29;14.50;99.90
6379;DHT22;3222;48.858;10.128;2023-05-07T04:20:55;14.50;99.90
6379;DHT22;3222;48.858;10.128;2023-05-07T04:23:21;14.50;99.90
6379;DHT22;3222;48.858;10.128;2023-05-07T04:25:47;14.50;99.90
6379;DHT22;3222;48.858;10.128;2023-05-07T04:28:35;14.50;99.90
6379;DHT22;3222;48.858;10.128;2023-05-07T04:31:01;14.50;99.90
6379;DHT22;3222;48.858;10.128;2023-05-07T04:33:28;14.40;99.90
6379;DHT22;3222;48.858;10.128;2023-05-07T04:35:56;14.40;99.90
6379;DHT22;3222;48.858;10.128;2023-05-07T04:38:22;14.40;99.90
6379;DHT22;3222;48.858;10.128;2023-05-07T04:40:50;14.40;99.90
6379;DHT22;3222;48.858;10.128;2023-05-07T04:43:20;14.40;99.90
6379;DHT22;3222;48.858;10.128;2023-05-07T04:45:51;14.40;99.90
6379;DHT22;3222;48.858;10.128;2023-05-07T04:48:17;14.30;99.90
6379;DHT22;3222;48.858;10.128;2023-05-07T04:50:47;14.30;99.90
6379;DHT22;3222;48.858;10.128;2023-05-07T04:53:13;14.30;99.90
6379;DHT22;3222;48.858;10.128;2023-05-07T04:55:39;14.30;99.90
6379;DHT22;3222;48.858;10.128;2023-05-07T04:58:06;14.30;99.90
6379;DHT22;3222;48.858;10.128;2023-05-07T05:00:34;14.30;99.90
6379;DHT22;3222;48.858;10.128;2023-05-07T05:03:02;14.30;99.90
6379;DHT22;3222;48.858;10.128;2023-05-07T05:05:28;14.30;99.90
6379;DHT22;3222;48.858;10.128;2023-05-07T05:07:54;14.30;99.90
6379;DHT22;3222;48.858;10.128;2023-05-07T05:10:21;14.30;99.90
6379;DHT22;3222;48.858;10.128;2023-05-07T05:12:48;14.40;99.90
6379;DHT22;3222;48.858;10.128;2023-05-07T05:15:14;14.40;99.90
6379;DHT22;3222;48.858;10.128;2023-05-07T05:17:41;14.40;99.90
6379;DHT22;3222;48.858;10.128;2023-05-07T05:20:07;14.40;99.90
6379;DHT22;3222;48.858;10.128;2023-05-07T05:22:36;14.40;99.90
6379;DHT22;3222;48.858;10.128;2023-05-07T05:25:03;14.40;99.90
6379;DHT22;3222;48.858;10.128;2023-05-07T05:27:29;14.40;99.90
6379;DHT22;3222;48.858;10.128;2023-05-07T05:29:55;14.50;99.90
6379;DHT22;3222;48.858;10.128;2023-05-07T05:32:21;14.50;99.90
6379;DHT22;3222;48.858;10.128;2023-05-07T05:34:47;14.50;99.90
6379;DHT22;3222;48.858;10.128;2023-05-07T05:37:13;14.50;99.90
6379;DHT22;3222;48.858;10.128;2023-05-07T05:39:39;14.50;99.90
6379;DHT22;3222;48.858;10.128;2023-05-07T05:42:06;14.40;99.90
6379;DHT22;3222;48.858;10.128;2023-05-07T05:44:34;14.50;99.90
6379;DHT22;3222;48.858;10.128;2023-05-07T05:47:00;14.50;99.90
6379;DHT22;3222;48.858;10.128;2023-05-07T05:49:27;14.50;99.90
6379;DHT22;3222;48.858;10.128;2023-05-07T05:51:53;14.50;99.90
6379;DHT22;3222;48.858;10.128;2023-05-07T05:54:20;14.50;99.90
6379;DHT22;3222;48.858;10.128;2023-05-07T05:56:46;14.50;99.90
6379;DHT22;3222;48.858;10.128;2023-05-07T05:59:13;14.50;99.90
6379;DHT22;3222;48.858;10.128;2023-05-07T06:01:39;14.50;99.90
6379;DHT22;3222;48.858;10.128;2023-05-07T06:04:06;14.50;99.90
6379;DHT22;3222;48.858;10.128;2023-05-07T06:06:31;14.50;99.90
6379;DHT22;3222;48.858;10.128;2023-05-07T06:08:58;14.50;99.90
6379;DHT22;3222;48.858;10.128;2023-05-07T06:11:29;14.50;99.90
6379;DHT22;3222;48.858;10.128;2023-05-07T06:13:55;14.50;99.90
6379;DHT22;3222;48.858;10.128;2023-05-07T06:16:21;14.60;99.90
6379;DHT22;3222;48.858;10.128;2023-05-07T06:18:47;14.60;99.90
6379;DHT22;3222;48.858;10.128;2023-05-07T06:21:14;14.70;99.90
6379;DHT22;3222;48.858;10.128;2023-05-07T06:23:40;14.70;99.90
6379;DHT22;3222;48.858;10.128;2023-05-07T06:26:06;14.80;99.90
6379;DHT22;3222;48.858;10.128;2023-05-07T06:28:37;14.80;99.90
6379;DHT22;3222;48.858;10.128;2023-05-07T06:31:16;14.90;99.90
6379;DHT22;3222;48.858;10.128;2023-05-07T06:33:46;14.90;99.90
6379;DHT22;3222;48.858;10.128;2023-05-07T06:36:12;15.00;99.90
6379;DHT22;3222;48.858;10.128;2023-05-07T06:38:38;15.00;99.90
6379;DHT22;3222;48.858;10.128;2023-05-07T06:41:05;15.00;99.90
6379;DHT22;3222;48.858;10.128;2023-05-07T06:43:31;15.00;99.90
6379;DHT22;3222;48.858;10.128;2023-05-07T06:46:23;15.00;99.90
6379;DHT22;3222;48.858;10.128;2023-05-07T06:48:49;15.10;99.90
6379;DHT22;3222;48.858;10.128;2023-05-07T06:51:15;15.10;99.90
6379;DHT22;3222;48.858;10.128;2023-05-07T06:53:40;15.10;99.90
6379;DHT22;3222;48.858;10.128;2023-05-07T06:56:09;15.20;99.90
6379;DHT22;3222;48.858;10.128;2023-05-07T06:58:37;15.20;99.90
6379;DHT22;3222;48.858;10.128;2023-05-07T07:01:03;15.30;99.90
6379;DHT22;3222;48.858;10.128;2023-05-07T07:03:30;15.30;99.90
6379;DHT22;3222;48.858;10.128;2023-05-07T07:05:56;15.40;99.90
6379;DHT22;3222;48.858;10.128;2023-05-07T07:08:23;15.40;99.90
6379;DHT22;3222;48.858;10.128;2023-05-07T07:10:49;15.50;99.90
6379;DHT22;3222;48.858;10.128;2023-05-07T07:13:15;15.60;99.90
6379;DHT22;3222;48.858;10.128;2023-05-07T07:15:41;15.60;99.90
6379;DHT22;3222;48.858;10.128;2023-05-07T07:18:06;15.60;99.90
6379;DHT22;3222;48.858;10.128;2023-05-07T07:20:32;15.70;99.90
6379;DHT22;3222;48.858;10.128;2023-05-07T07:22:58;15.80;99.90
6379;DHT22;3222;48.858;10.128;2023-05-07T07:25:25;15.80;99.90
6379;DHT22;3222;48.858;10.128;2023-05-07T07:27:51;15.90;99.90
6379;DHT22;3222;48.858;10.128;2023-05-07T07:30:17;15.90;99.90
6379;DHT22;3222;48.858;10.128;2023-05-07T07:32:46;16.00;99.90
6379;DHT22;3222;48.858;10.128;2023-05-07T07:35:11;16.00;99.90
6379;DHT22;3222;48.858;10.128;2023-05-07T07:37:38;16.10;99.90
6379;DHT22;3222;48.858;10.128;2023-05-07T07:40:05;16.10;99.90
6379;DHT22;3222;48.858;10.128;2023-05-07T07:42:31;16.10;99.90
6379;DHT22;3222;48.858;10.128;2023-05-07T07:44:57;16.20;99.90
6379;DHT22;3222;48.858;10.128;2023-05-07T07:47:26;16.30;99.90
6379;DHT22;3222;48.858;10.128;2023-05-07T07:49:52;16.30;99.90
6379;DHT22;3222;48.858;10.128;2023-05-07T07:52:18;16.30;99.90
6379;DHT22;3222;48.858;10.128;2023-05-07T07:54:45;16.30;99.90
6379;DHT22;3222;48.858;10.128;2023-05-07T07:57:11;16.40;99.90
6379;DHT22;3222;48.858;10.128;2023-05-07T07:59:36;16.40;99.90
6379;DHT22;3222;48.858;10.128;2023-05-07T08:02:03;16.50;99.90
6379;DHT22;3222;48.858;10.128;2023-05-07T08:04:29;16.60;99.90
6379;DHT22;3222;48.858;10.128;2023-05-07T08:07:00;16.60;99.90
6379;DHT22;3222;48.858;10.128;2023-05-07T08:09:26;16.70;99.90
6379;DHT22;3222;48.858;10.128;2023-05-07T08:11:53;16.80;99.90
6379;DHT22;3222;48.858;10.128;2023-05-07T08:14:19;16.90;99.90
6379;DHT22;3222;48.858;10.128;2023-05-07T08:16:46;16.90;99.90
6379;DHT22;3222;48.858;10.128;2023-05-07T08:19:12;17.00;99.90
6379;DHT22;3222;48.858;10.128;2023-05-07T08:21:39;17.00;99.90
6379;DHT22;3222;48.858;10.128;2023-05-07T08:24:05;17.00;99.90
6379;DHT22;3222;48.858;10.128;2023-05-07T08:26:31;17.10;99.90
6379;DHT22;3222;48.858;10.128;2023-05-07T08:28:57;17.10;99.90
6379;DHT22;3222;48.858;10.128;2023-05-07T08:31:24;17.20;99.90
6379;DHT22;3222;48.858;10.128;2023-05-07T08:33:50;17.30;99.90
6379;DHT22;3222;48.858;10.128;2023-05-07T08:36:15;17.30;99.90
6379;DHT22;3222;48.858;10.128;2023-05-07T08:38:42;17.40;99.90
6379;DHT22;3222;48.858;10.128;2023-05-07T08:41:11;17.40;99.90
6379;DHT22;3222;48.858;10.128;2023-05-07T08:43:41;17.50;99.90
6379;DHT22;3222;48.858;10.128;2023-05-07T08:46:09;17.60;99.90
6379;DHT22;3222;48.858;10.128;2023-05-07T08:48:37;17.60;99.90
6379;DHT22;3222;48.858;10.128;2023-05-07T08:51:12;17.60;99.90
6379;DHT22;3222;48.858;10.128;2023-05-07T08:53:40;17.60;99.90
6379;DHT22;3222;48.858;10.128;2023-05-07T08:56:09;17.70;99.90
6379;DHT22;3222;48.858;10.128;2023-05-07T08:58:35;17.70;99.90
6379;DHT22;3222;48.858;10.128;2023-05-07T09:01:05;17.80;99.90
6379;DHT22;3222;48.858;10.128;2023-05-07T09:03:33;17.70;99.90
6379;DHT22;3222;48.858;10.128;2023-05-07T09:05:59;17.80;99.90
6379;DHT22;3222;48.858;10.128;2023-05-07T09:08:26;17.90;99.90
6379;DHT22;3222;48.858;10.128;2023-05-07T09:10:54;17.90;99.90
6379;DHT22;3222;48.858;10.128;2023-05-07T09:13:21;17.90;99.90
6379;DHT22;3222;48.858;10.128;2023-05-07T09:15:47;18.00;99.90
6379;DHT22;3222;48.858;10.128;2023-05-07T09:18:14;18.10;99.90
6379;DHT22;3222;48.858;10.128;2023-05-07T09:20:40;18.10;99.90
6379;DHT22;3222;48.858;10.128;2023-05-07T09:23:07;18.10;99.90
6379;DHT22;3222;48.858;10.128;2023-05-07T09:25:35;18.20;99.90
6379;DHT22;3222;48.858;10.128;2023-05-07T09:28:06;18.20;99.90
6379;DHT22;3222;48.858;10.128;2023-05-07T09:30:34;18.20;99.90
6379;DHT22;3222;48.858;10.128;2023-05-07T09:33:03;18.30;99.90
6379;DHT22;3222;48.858;10.128;2023-05-07T09:35:30;18.30;99.90
6379;DHT22;3222;48.858;10.128;2023-05-07T09:38:01;18.20;99.90
6379;DHT22;3222;48.858;10.128;2023-05-07T09:40:30;18.20;99.90
6379;DHT22;3222;48.858;10.128;2023-05-07T09:43:09;18.30;99.90
6379;DHT22;3222;48.858;10.128;2023-05-07T09:45:37;18.30;99.90
6379;DHT22;3222;48.858;10.128;2023-05-07T09:48:05;18.30;99.90
6379;DHT22;3222;48.858;10.128;2023-05-07T09:50:47;18.40;99.90
6379;DHT22;3222;48.858;10.128;2023-05-07T09:53:16;18.40;99.90
6379;DHT22;3222;48.858;10.128;2023-05-07T09:55:43;18.40;99.90
6379;DHT22;3222;48.858;10.128;2023-05-07T09:58:11;18.50;99.90
6379;DHT22;3222;48.858;10.128;2023-05-07T10:00:39;18.50;99.90
6379;DHT22;3222;48.858;10.128;2023-05-07T10:03:10;18.60;99.90
6379;DHT22;3222;48.858;10.128;2023-05-07T10:05:44;18.70;99.90
6379;DHT22;3222;48.858;10.128;2023-05-07T10:08:13;18.70;99.90
6379;DHT22;3222;48.858;10.128;2023-05-07T10:10:42;18.70;99.90
6379;DHT22;3222;48.858;10.128;2023-05-07T10:13:12;18.60;99.90
6379;DHT22;3222;48.858;10.128;2023-05-07T10:15:42;18.70;99.90
6379;DHT22;3222;48.858;10.128;2023-05-07T10:18:08;18.70;99.90
6379;DHT22;3222;48.858;10.128;2023-05-07T10:20:36;18.70;99.90
6379;DHT22;3222;48.858;10.128;2023-05-07T10:23:04;18.70;99.90
6379;DHT22;3222;48.858;10.128;2023-05-07T10:25:37;18.80;99.90
6379;DHT22;3222;48.858;10.128;2023-05-07T10:28:11;18.80;99.90
6379;DHT22;3222;48.858;10.128;2023-05-07T10:33:15;18.90;99.90
6379;DHT22;3222;48.858;10.128;2023-05-07T10:35:45;18.90;99.90
6379;DHT22;3222;48.858;10.128;2023-05-07T10:38:12;18.90;99.90
6379;DHT22;3222;48.858;10.128;2023-05-07T10:40:41;19.00;99.90
6379;DHT22;3222;48.858;10.128;2023-05-07T10:43:08;19.00;99.90
6379;DHT22;3222;48.858;10.128;2023-05-07T10:45:40;19.00;99.90
6379;DHT22;3222;48.858;10.128;2023-05-07T10:48:15;19.00;99.90
6379;DHT22;3222;48.858;10.128;2023-05-07T10:50:44;19.10;99.90
6379;DHT22;3222;48.858;10.128;2023-05-07T10:58:49;19.10;99.90
6379;DHT22;3222;48.858;10.128;2023-05-07T11:04:22;19.20;99.90
6379;DHT22;3222;48.858;10.128;2023-05-07T11:09:54;19.30;99.90
6379;DHT22;3222;48.858;10.128;2023-05-07T11:15:05;19.40;99.90
6379;DHT22;3222;48.858;10.128;2023-05-07T11:17:35;19.40;99.90
6379;DHT22;3222;48.858;10.128;2023-05-07T11:20:17;19.40;99.90
6379;DHT22;3222;48.858;10.128;2023-05-07T11:22:50;19.40;99.90
6379;DHT22;3222;48.858;10.128;2023-05-07T11:25:24;19.50;99.90
6379;DHT22;3222;48.858;10.128;2023-05-07T11:28:06;19.50;99.90
6379;DHT22;3222;48.858;10.128;2023-05-07T11:30:33;19.70;99.90
6379;DHT22;3222;48.858;10.128;2023-05-07T11:32:59;19.60;99.90
6379;DHT22;3222;48.858;10.128;2023-05-07T11:35:26;19.60;99.90
6379;DHT22;3222;48.858;10.128;2023-05-07T11:37:59;19.70;99.90
6379;DHT22;3222;48.858;10.128;2023-05-07T11:40:25;19.60;99.90
6379;DHT22;3222;48.858;10.128;2023-05-07T11:42:51;19.50;99.90
6379;DHT22;3222;48.858;10.128;2023-05-07T11:45:23;19.60;99.90
6379;DHT22;3222;48.858;10.128;2023-05-07T11:47:50;19.50;99.90
6379;DHT22;3222;48.858;10.128;2023-05-07T11:50:16;19.60;99.90
6379;DHT22;3222;48.858;10.128;2023-05-07T11:52:50;19.50;99.90
6379;DHT22;3222;48.858;10.128;2023-05-07T11:55:18;19.50;99.90
6379;DHT22;3222;48.858;10.128;2023-05-07T11:57:44;19.50;99.90
6379;DHT22;3222;48.858;10.128;2023-05-07T12:00:11;19.60;99.90
6379;DHT22;3222;48.858;10.128;2023-05-07T12:02:39;19.50;99.90
6379;DHT22;3222;48.858;10.128;2023-05-07T12:05:05;19.50;99.90
6379;DHT22;3222;48.858;10.128;2023-05-07T12:07:33;19.60;99.90
6379;DHT22;3222;48.858;10.128;2023-05-07T12:09:59;19.70;99.90
6379;DHT22;3222;48.858;10.128;2023-05-07T12:12:25;19.80;99.90
6379;DHT22;3222;48.858;10.128;2023-05-07T12:14:52;19.80;99.90
6379;DHT22;3222;48.858;10.128;2023-05-07T12:17:18;19.80;99.90
6379;DHT22;3222;48.858;10.128;2023-05-07T12:19:44;19.80;99.90
6379;DHT22;3222;48.858;10.128;2023-05-07T12:22:10;19.90;99.90
6379;DHT22;3222;48.858;10.128;2023-05-07T12:25:08;19.80;99.90
6379;DHT22;3222;48.858;10.128;2023-05-07T12:27:37;19.80;99.90
6379;DHT22;3222;48.858;10.128;2023-05-07T12:30:03;19.90;99.90
6379;DHT22;3222;48.858;10.128;2023-05-07T12:32:29;19.90;99.90
6379;DHT22;3222;48.858;10.128;2023-05-07T12:34:55;20.00;99.90
6379;DHT22;3222;48.858;10.128;2023-05-07T12:37:24;20.00;99.90
6379;DHT22;3222;48.858;10.128;2023-05-07T12:40:08;19.90;99.90
6379;DHT22;3222;48.858;10.128;2023-05-07T12:42:38;20.00;99.90
6379;DHT22;3222;48.858;10.128;2023-05-07T12:45:11;20.00;99.90
6379;DHT22;3222;48.858;10.128;2023-05-07T12:47:37;20.00;99.90
6379;DHT22;3222;48.858;10.128;2023-05-07T12:50:05;19.90;99.90
6379;DHT22;3222;48.858;10.128;2023-05-07T12:52:32;19.90;99.90
6379;DHT22;3222;48.858;10.128;2023-05-07T12:55:05;19.80;99.90
6379;DHT22;3222;48.858;10.128;2023-05-07T12:57:38;19.90;99.90
6379;DHT22;3222;48.858;10.128;2023-05-07T13:00:05;19.80;99.90
6379;DHT22;3222;48.858;10.128;2023-05-07T13:02:34;19.90;99.90
6379;DHT22;3222;48.858;10.128;2023-05-07T13:05:02;19.70;99.90
6379;DHT22;3222;48.858;10.128;2023-05-07T13:07:28;19.70;99.90
6379;DHT22;3222;48.858;10.128;2023-05-07T13:09:54;19.70;99.90
6379;DHT22;3222;48.858;10.128;2023-05-07T13:12:19;19.60;99.90
6379;DHT22;3222;48.858;10.128;2023-05-07T13:14:45;19.80;99.90
6379;DHT22;3222;48.858;10.128;2023-05-07T13:17:11;19.80;99.90
6379;DHT22;3222;48.858;10.128;2023-05-07T13:19:36;19.80;99.90
6379;DHT22;3222;48.858;10.128;2023-05-07T13:22:03;19.80;99.90
6379;DHT22;3222;48.858;10.128;2023-05-07T13:24:29;19.80;99.90
6379;DHT22;3222;48.858;10.128;2023-05-07T13:26:54;19.80;99.90
6379;DHT22;3222;48.858;10.128;2023-05-07T13:29:20;19.90;99.90
6379;DHT22;3222;48.858;10.128;2023-05-07T13:31:50;20.00;99.90
6379;DHT22;3222;48.858;10.128;2023-05-07T13:34:16;19.90;99.90
6379;DHT22;3222;48.858;10.128;2023-05-07T13:36:42;19.80;99.90
6379;DHT22;3222;48.858;10.128;2023-05-07T13:39:07;19.70;99.90
6379;DHT22;3222;48.858;10.128;2023-05-07T13:41:34;19.80;99.90
6379;DHT22;3222;48.858;10.128;2023-05-07T13:44:00;19.80;99.90
6379;DHT22;3222;48.858;10.128;2023-05-07T13:46:25;19.90;99.90
6379;DHT22;3222;48.858;10.128;2023-05-07T13:48:51;20.00;99.90
6379;DHT22;3222;48.858;10.128;2023-05-07T13:51:17;20.10;99.90
6379;DHT22;3222;48.858;10.128;2023-05-07T13:53:43;20.00;99.90
6379;DHT22;3222;48.858;10.128;2023-05-07T13:56:09;19.90;99.90
6379;DHT22;3222;48.858;10.128;2023-05-07T13:58:34;20.00;99.90
6379;DHT22;3222;48.858;10.128;2023-05-07T14:01:02;20.10;99.90
6379;DHT22;3222;48.858;10.128;2023-05-07T14:03:27;20.10;99.90
6379;DHT22;3222;48.858;10.128;2023-05-07T14:05:53;20.10;99.90
6379;DHT22;3222;48.858;10.128;2023-05-07T14:08:18;20.10;99.90
6379;DHT22;3222;48.858;10.128;2023-05-07T14:10:45;20.00;99.90
6379;DHT22;3222;48.858;10.128;2023-05-07T14:13:11;19.90;99.90
6379;DHT22;3222;48.858;10.128;2023-05-07T14:15:37;20.00;99.90
6379;DHT22;3222;48.858;10.128;2023-05-07T14:18:03;20.10;99.90
6379;DHT22;3222;48.858;10.128;2023-05-07T14:20:28;20.00;99.90
6379;DHT22;3222;48.858;10.128;2023-05-07T14:22:56;20.10;99.90
6379;DHT22;3222;48.858;10.128;2023-05-07T14:25:21;20.10;99.90
6379;DHT22;3222;48.858;10.128;2023-05-07T14:27:50;20.00;99.90
6379;DHT22;3222;48.858;10.128;2023-05-07T14:30:16;20.00;99.90
6379;DHT22;3222;48.858;10.128;2023-05-07T14:32:42;20.00;99.90
6379;DHT22;3222;48.858;10.128;2023-05-07T14:35:08;20.00;99.90
6379;DHT22;3222;48.858;10.128;2023-05-07T14:37:33;20.00;99.90
6379;DHT22;3222;48.858;10.128;2023-05-07T14:39:59;20.00;99.90
6379;DHT22;3222;48.858;10.128;2023-05-07T14:42:25;19.90;99.90
6379;DHT22;3222;48.858;10.128;2023-05-07T14:44:50;19.90;99.90
6379;DHT22;3222;48.858;10.128;2023-05-07T14:47:18;19.90;99.90
6379;DHT22;3222;48.858;10.128;2023-05-07T14:49:43;19.90;99.90
6379;DHT22;3222;48.858;10.128;2023-05-07T14:52:09;20.00;99.90
6379;DHT22;3222;48.858;10.128;2023-05-07T14:54:36;20.00;99.90
6379;DHT22;3222;48.858;10.128;2023-05-07T14:57:02;19.90;99.90
6379;DHT22;3222;48.858;10.128;2023-05-07T14:59:28;19.90;99.90
6379;DHT22;3222;48.858;10.128;2023-05-07T15:01:54;19.90;99.90
6379;DHT22;3222;48.858;10.128;2023-05-07T15:04:20;19.90;99.90
6379;DHT22;3222;48.858;10.128;2023-05-07T15:06:45;19.90;99.90
6379;DHT22;3222;48.858;10.128;2023-05-07T15:09:11;19.80;99.90
6379;DHT22;3222;48.858;10.128;2023-05-07T15:11:37;19.90;99.90
6379;DHT22;3222;48.858;10.128;2023-05-07T15:14:03;19.70;99.90
6379;DHT22;3222;48.858;10.128;2023-05-07T15:16:29;19.80;99.90
6379;DHT22;3222;48.858;10.128;2023-05-07T15:18:55;19.80;99.90
6379;DHT22;3222;48.858;10.128;2023-05-07T15:21:21;19.70;99.90
6379;DHT22;3222;48.858;10.128;2023-05-07T15:23:46;19.60;99.90
6379;DHT22;3222;48.858;10.128;2023-05-07T15:26:12;19.60;99.90
6379;DHT22;3222;48.858;10.128;2023-05-07T15:28:38;19.60;99.90
6379;DHT22;3222;48.858;10.128;2023-05-07T15:31:04;19.50;99.90
6379;DHT22;3222;48.858;10.128;2023-05-07T15:33:32;19.40;99.90
6379;DHT22;3222;48.858;10.128;2023-05-07T15:35:58;19.50;99.90
6379;DHT22;3222;48.858;10.128;2023-05-07T15:38:27;19.50;99.90
6379;DHT22;3222;48.858;10.128;2023-05-07T15:40:53;19.50;99.90
6379;DHT22;3222;48.858;10.128;2023-05-07T15:43:20;19.40;99.90
6379;DHT22;3222;48.858;10.128;2023-05-07T15:45:46;19.40;99.90
6379;DHT22;3222;48.858;10.128;2023-05-07T15:48:11;19.50;99.90
6379;DHT22;3222;48.858;10.128;2023-05-07T15:50:37;19.40;99.90
6379;DHT22;3222;48.858;10.128;2023-05-07T15:53:03;19.30;99.90
6379;DHT22;3222;48.858;10.128;2023-05-07T15:55:30;19.20;99.90
6379;DHT22;3222;48.858;10.128;2023-05-07T15:57:56;19.10;99.90
6379;DHT22;3222;48.858;10.128;2023-05-07T16:00:24;19.10;99.90
6379;DHT22;3222;48.858;10.128;2023-05-07T16:02:51;19.10;99.90